createdAt,value
2023-04-18T00:00:28.006Z,101388.00
2023-04-18T00:05:52.988Z,101390.00
2023-04-18T00:10:58.560Z,101389.60
2023-04-18T00:16:04.494Z,101384.80
2023-04-18T00:21:10.776Z,101379.20
2023-04-18T00:26:16.708Z,101378.20
2023-04-18T00:31:22.305Z,101385.40
2023-04-18T00:36:27.914Z,101381.00
2023-04-18T00:41:33.489Z,101378.40
2023-04-18T00:46:39.368Z,101376.60
2023-04-18T00:51:46.254Z,101376.20
2023-04-18T00:56:52.135Z,101377.00
2023-04-18T01:01:57.846Z,101371.80
2023-04-18T01:07:04.592Z,101379.60
2023-04-18T01:12:10.648Z,101377.20
2023-04-18T01:17:17.105Z,101379.20
2023-04-18T01:22:22.929Z,101379.00
2023-04-18T01:27:28.713Z,101375.20
2023-04-18T01:32:34.641Z,101376.60
2023-04-18T01:37:40.344Z,101368.80
2023-04-18T01:42:45.946Z,101376.60
2023-04-18T01:47:51.748Z,101383.80
2023-04-18T01:52:57.434Z,101392.80
2023-04-18T01:58:03.401Z,101389.60
2023-04-18T02:03:09.138Z,101389.60
2023-04-18T02:08:15.138Z,101392.60
2023-04-18T02:13:20.780Z,101388.80
2023-04-18T02:18:27.145Z,101385.20
2023-04-18T02:23:32.839Z,101386.40
2023-04-18T02:28:39.240Z,101388.00
2023-04-18T02:33:46.775Z,101385.00
2023-04-18T02:38:52.452Z,101383.00
2023-04-18T02:43:58.106Z,101379.00
2023-04-18T02:49:03.857Z,101375.40
2023-04-18T02:54:09.904Z,101378.80
2023-04-18T02:59:16.019Z,101380.60
2023-04-18T03:04:21.930Z,101373.80
2023-04-18T03:09:27.808Z,101382.80
2023-04-18T03:14:33.724Z,101375.80
2023-04-18T03:19:39.497Z,101374.20
2023-04-18T03:24:45.617Z,101374.80
2023-04-18T03:29:51.949Z,101371.80
2023-04-18T03:34:57.709Z,101380.00
2023-04-18T03:40:04.973Z,101377.40
2023-04-18T03:45:12.704Z,101373.40
2023-04-18T03:50:18.403Z,101374.60
2023-04-18T03:55:24.065Z,101374.00
2023-04-18T04:00:29.813Z,101380.40
2023-04-18T04:05:35.631Z,101382.00
2023-04-18T04:10:41.190Z,101381.20
2023-04-18T04:15:47.083Z,101385.80
2023-04-18T04:20:52.658Z,101386.80
2023-04-18T04:25:58.878Z,101387.80
2023-04-18T04:31:07.677Z,101395.60
2023-04-18T04:36:14.543Z,101390.40
2023-04-18T04:41:22.111Z,101395.00
2023-04-18T04:46:30.031Z,101404.60
2023-04-18T04:51:35.538Z,101415.00
2023-04-18T04:56:41.230Z,101416.40
2023-04-18T05:02:02.086Z,101421.80
2023-04-18T05:07:08.077Z,101427.00
2023-04-18T05:12:13.703Z,101434.60
2023-04-18T05:17:19.295Z,101444.40
2023-04-18T05:22:25.069Z,101442.00
2023-04-18T05:27:30.776Z,101450.60
2023-04-18T05:32:38.566Z,101448.20
2023-04-18T05:37:44.236Z,101453.20
2023-04-18T05:42:50.305Z,101445.80
2023-04-18T05:47:56.055Z,101447.00
2023-04-18T05:53:01.774Z,101452.20
2023-04-18T05:58:07.626Z,101450.00
2023-04-18T06:03:13.349Z,101451.40
2023-04-18T06:08:19.144Z,101456.40
2023-04-18T06:13:25.099Z,101456.40
2023-04-18T06:18:30.993Z,101454.00
2023-04-18T06:23:38.139Z,101448.00
2023-04-18T06:28:43.954Z,101447.00
2023-04-18T06:33:49.696Z,101454.20
2023-04-18T06:38:55.802Z,101444.60
2023-04-18T06:44:04.665Z,101440.20
2023-04-18T06:49:11.132Z,101442.60
2023-04-18T06:54:16.893Z,101449.20
2023-04-18T06:59:23.014Z,101455.20
2023-04-18T07:04:28.940Z,101465.80
2023-04-18T07:09:34.700Z,101467.00
2023-04-18T07:14:42.058Z,101463.40
2023-04-18T07:19:48.365Z,101474.00
2023-04-18T07:24:54.311Z,101474.00
2023-04-18T07:29:59.886Z,101468.60
2023-04-18T07:35:06.496Z,101484.40
2023-04-18T07:40:16.281Z,101474.40
2023-04-18T07:45:22.019Z,101474.60
2023-04-18T07:50:33.790Z,101482.80
2023-04-18T07:55:40.090Z,101486.00
2023-04-18T08:00:47.119Z,101492.20
2023-04-18T08:05:54.223Z,101492.20
2023-04-18T08:11:00.581Z,101485.80
2023-04-18T08:16:08.545Z,101482.80
2023-04-18T08:21:14.878Z,101495.00
2023-04-18T08:26:21.924Z,101493.40
2023-04-18T08:31:28.317Z,101488.00
2023-04-18T08:36:35.373Z,101489.60
2023-04-18T08:41:48.116Z,101493.60
2023-04-18T08:46:55.373Z,101488.00
2023-04-18T08:52:09.299Z,101494.60
2023-04-18T08:57:23.619Z,101494.60
2023-04-18T09:02:42.248Z,101491.00
2023-04-18T09:07:50.072Z,101483.20
2023-04-18T09:12:56.561Z,101485.20
2023-04-18T09:18:03.507Z,101478.60
2023-04-18T09:23:11.502Z,101480.00
2023-04-18T09:28:34.478Z,101483.00
2023-04-18T09:33:52.382Z,101475.40
2023-04-18T09:38:58.935Z,101486.00
2023-04-18T09:44:15.572Z,101484.20
2023-04-18T09:49:21.586Z,101496.20
2023-04-18T09:54:31.434Z,101483.40
2023-04-18T09:59:47.228Z,101479.60
2023-04-18T10:04:56.240Z,101479.40
2023-04-18T10:10:02.054Z,101478.00
2023-04-18T10:15:11.264Z,101467.40
2023-04-18T10:20:22.377Z,101462.80
2023-04-18T10:25:54.481Z,101448.20
2023-04-18T10:31:05.242Z,101456.20
2023-04-18T10:36:20.122Z,101457.20
2023-04-18T10:41:28.107Z,101453.60
2023-04-18T10:46:35.184Z,101464.80
2023-04-18T10:51:40.903Z,101454.40
2023-04-18T10:56:56.454Z,101440.80
2023-04-18T11:02:23.466Z,101439.40
2023-04-18T11:07:37.769Z,101448.80
2023-04-18T11:12:43.635Z,101433.60
2023-04-18T11:17:58.733Z,101431.00
2023-04-18T11:23:04.472Z,101431.60
2023-04-18T11:28:13.144Z,101423.20
2023-04-18T11:33:19.089Z,101443.20
2023-04-18T11:38:31.105Z,101424.00
2023-04-18T11:43:36.767Z,101414.60
2023-04-18T11:48:45.090Z,101400.00
2023-04-18T11:53:51.278Z,101415.40
2023-04-18T11:58:57.395Z,101416.20
2023-04-18T12:04:05.369Z,101410.80
2023-04-18T12:09:16.275Z,101396.00
2023-04-18T12:14:22.776Z,101409.80
2023-04-18T12:19:32.312Z,101403.00
2023-04-18T12:24:38.238Z,101399.40
2023-04-18T12:29:43.792Z,101396.20
2023-04-18T12:34:49.631Z,101397.40
2023-04-18T12:39:55.452Z,101391.80
2023-04-18T12:45:03.173Z,101388.00
2023-04-18T12:50:16.628Z,101389.20
2023-04-18T12:55:23.028Z,101384.20
2023-04-18T13:00:31.927Z,101385.80
2023-04-18T13:05:37.696Z,101361.00
2023-04-18T13:10:43.558Z,101358.00
2023-04-18T13:15:50.846Z,101377.20
2023-04-18T13:20:56.468Z,101374.60
2023-04-18T13:26:02.130Z,101370.40
2023-04-18T13:31:07.827Z,101366.60
2023-04-18T13:36:13.457Z,101366.40
2023-04-18T13:41:46.582Z,101361.80
2023-04-18T13:46:53.121Z,101367.00
2023-04-18T13:51:58.769Z,101365.60
2023-04-18T13:57:10.853Z,101367.00
2023-04-18T14:02:16.619Z,101364.00
2023-04-18T14:07:22.398Z,101353.40
2023-04-18T14:12:51.858Z,101355.80
2023-04-18T14:17:57.934Z,101346.20
2023-04-18T14:23:03.615Z,101347.80
2023-04-18T14:28:12.090Z,101341.60
2023-04-18T14:33:17.865Z,101337.40
2023-04-18T14:38:23.664Z,101349.40
2023-04-18T14:43:29.793Z,101360.20
2023-04-18T14:48:35.481Z,101368.80
2023-04-18T14:53:41.399Z,101357.00
2023-04-18T14:58:47.115Z,101344.00
2023-04-18T15:03:53.852Z,101340.00
2023-04-18T15:08:59.692Z,101344.80
2023-04-18T15:14:05.249Z,101345.20
2023-04-18T15:19:11.203Z,101350.40
2023-04-18T15:24:17.024Z,101348.40
2023-04-18T15:29:22.905Z,101354.20
2023-04-18T15:34:28.535Z,101351.80
2023-04-18T15:39:34.160Z,101345.40
2023-04-18T15:44:39.805Z,101349.60
2023-04-18T15:49:45.417Z,101342.40
2023-04-18T15:54:52.262Z,101338.80
2023-04-18T15:59:59.060Z,101341.20
2023-04-18T16:05:05.184Z,101339.80
2023-04-18T16:10:14.705Z,101341.40
2023-04-18T16:15:20.918Z,101339.60
2023-04-18T16:20:27.239Z,101334.60
2023-04-18T16:25:33.159Z,101326.60
2023-04-18T16:30:40.068Z,101324.20
2023-04-18T16:35:45.781Z,101320.80
2023-04-18T16:40:51.412Z,101321.80
2023-04-18T16:45:57.470Z,101315.80
2023-04-18T16:51:03.076Z,101311.40
2023-04-18T16:56:09.350Z,101309.40
2023-04-18T17:01:15.011Z,101317.40
2023-04-18T17:06:22.490Z,101312.00
2023-04-18T17:11:28.210Z,101312.00
2023-04-18T17:16:34.210Z,101289.40
2023-04-18T17:21:40.461Z,101314.00
2023-04-18T17:26:46.145Z,101314.40
2023-04-18T17:31:51.995Z,101318.20
2023-04-18T17:36:57.728Z,101317.80
2023-04-18T17:42:03.556Z,101314.00
2023-04-18T17:47:09.629Z,101310.00
2023-04-18T17:52:15.373Z,101317.20
2023-04-18T17:57:21.989Z,101322.00
2023-04-18T18:02:28.288Z,101321.40
2023-04-18T18:07:36.880Z,101328.80
2023-04-18T18:12:43.225Z,101333.40
2023-04-18T18:17:50.792Z,101335.00
2023-04-18T18:22:59.129Z,101331.20
2023-04-18T18:28:06.664Z,101325.60
2023-04-18T18:33:12.325Z,101317.80
2023-04-18T18:38:18.061Z,101319.80
2023-04-18T18:43:25.907Z,101317.20
2023-04-18T18:48:32.430Z,101309.20
2023-04-18T18:53:40.233Z,101305.00
2023-04-18T18:58:46.395Z,101296.80
2023-04-18T19:03:52.217Z,101298.80
2023-04-18T19:08:58.189Z,101295.00
2023-04-18T19:14:03.908Z,101290.40
2023-04-18T19:19:10.065Z,101288.00
2023-04-18T19:24:16.138Z,101282.40
2023-04-18T19:29:23.984Z,101270.00
2023-04-18T19:34:30.102Z,101268.00
2023-04-18T19:39:36.274Z,101265.60
2023-04-18T19:44:41.973Z,101259.20
2023-04-18T19:49:47.721Z,101250.20
2023-04-18T19:54:54.291Z,101241.40
2023-04-18T19:59:59.948Z,101233.20
2023-04-18T20:05:07.352Z,101230.00
2023-04-18T20:10:13.727Z,101226.00
2023-04-18T20:15:19.929Z,101219.00
2023-04-18T20:20:25.845Z,101209.40
2023-04-18T20:25:32.044Z,101207.40
2023-04-18T20:30:37.714Z,101205.60
2023-04-18T20:35:44.066Z,101196.40
2023-04-18T20:40:52.536Z,101192.80
2023-04-18T20:45:58.846Z,101188.20
2023-04-18T20:51:04.721Z,101181.60
2023-04-18T20:56:10.293Z,101178.80
2023-04-18T21:01:15.926Z,101172.60
2023-04-18T21:06:22.357Z,101170.40
2023-04-18T21:11:28.034Z,101163.00
2023-04-18T21:16:33.765Z,101166.80
2023-04-18T21:21:39.481Z,101154.00
2023-04-18T21:26:45.052Z,101150.00
2023-04-18T21:31:51.075Z,101149.80
2023-04-18T21:36:57.358Z,101147.00
2023-04-18T21:42:02.925Z,101149.60
2023-04-18T21:47:08.552Z,101145.60
2023-04-18T21:52:14.597Z,101137.20
2023-04-18T21:57:20.256Z,101131.80
2023-04-18T22:02:27.216Z,101134.20
2023-04-18T22:07:35.302Z,101125.20
2023-04-18T22:12:44.505Z,101111.00
2023-04-18T22:17:50.638Z,101107.00
2023-04-18T22:22:56.808Z,101098.20
2023-04-18T22:28:02.644Z,101101.80
2023-04-18T22:33:08.302Z,101099.60
2023-04-18T22:38:13.982Z,101086.60
2023-04-18T22:43:23.206Z,101077.40
2023-04-18T22:48:29.013Z,101077.40
2023-04-18T22:53:34.678Z,101080.20
2023-04-18T22:58:40.299Z,101069.80
2023-04-18T23:03:46.309Z,101059.40
2023-04-18T23:08:52.058Z,101057.20
2023-04-18T23:13:57.739Z,101052.20
2023-04-18T23:19:04.466Z,101042.60
2023-04-18T23:24:11.619Z,101039.40
2023-04-18T23:29:17.504Z,101031.40
2023-04-18T23:34:23.433Z,101027.60
2023-04-18T23:39:29.103Z,101014.40
2023-04-18T23:44:34.747Z,101008.20
2023-04-18T23:49:40.425Z,100996.80
2023-04-18T23:54:46.130Z,100988.80
2023-04-18T23:59:52.063Z,100983.40
